sensor_id;sensor_type;location;lat;lon;timestamp;temperature;humidity
24402;DHT22;12539;48.808;11.292;2023-07-31T00:02:00;17.20;97.10
24402;DHT22;12539;48.808;11.292;2023-07-31T00:04:26;17.20;97.00
24402;DHT22;12539;48.808;11.292;2023-07-31T00:06:51;17.20;97.10
24402;DHT22;12539;48.808;11.292;2023-07-31T00:09:17;17.20;97.10
24402;DHT22;12539;48.808;11.292;2023-07-31T00:11:43;17.10;97.10
24402;DHT22;12539;48.808;11.292;2023-07-31T00:14:09;17.20;97.70
24402;DHT22;12539;48.808;11.292;2023-07-31T00:16:35;17.20;97.30
24402;DHT22;12539;48.808;11.292;2023-07-31T00:19:00;17.20;97.10
24402;DHT22;12539;48.808;11.292;2023-07-31T00:21:26;17.30;97.20
24402;DHT22;12539;48.808;11.292;2023-07-31T00:23:51;17.30;97.00
24402;DHT22;12539;48.808;11.292;2023-07-31T00:26:17;17.30;97.30
24402;DHT22;12539;48.808;11.292;2023-07-31T00:28:42;17.30;97.30
24402;DHT22;12539;48.808;11.292;2023-07-31T00:31:08;17.20;97.40
24402;DHT22;12539;48.808;11.292;2023-07-31T00:33:34;17.20;97.50
24402;DHT22;12539;48.808;11.292;2023-07-31T00:36:00;17.20;97.80
24402;DHT22;12539;48.808;11.292;2023-07-31T00:38:25;17.20;97.60
24402;DHT22;12539;48.808;11.292;2023-07-31T00:40:51;17.10;97.60
24402;DHT22;12539;48.808;11.292;2023-07-31T00:43:16;17.10;97.70
24402;DHT22;12539;48.808;11.292;2023-07-31T00:45:42;17.10;98.00
24402;DHT22;12539;48.808;11.292;2023-07-31T00:48:07;17.10;98.00
24402;DHT22;12539;48.808;11.292;2023-07-31T00:50:33;17.10;98.20
24402;DHT22;12539;48.808;11.292;2023-07-31T00:53:00;17.10;98.00
24402;DHT22;12539;48.808;11.292;2023-07-31T00:55:25;17.10;98.20
24402;DHT22;12539;48.808;11.292;2023-07-31T00:57:51;17.10;98.20
24402;DHT22;12539;48.808;11.292;2023-07-31T01:00:18;17.10;98.30
24402;DHT22;12539;48.808;11.292;2023-07-31T01:02:44;17.20;98.20
24402;DHT22;12539;48.808;11.292;2023-07-31T01:05:09;17.20;98.40
24402;DHT22;12539;48.808;11.292;2023-07-31T01:10:26;17.20;98.40
24402;DHT22;12539;48.808;11.292;2023-07-31T01:12:52;17.20;98.50
24402;DHT22;12539;48.808;11.292;2023-07-31T01:15:18;17.20;98.60
24402;DHT22;12539;48.808;11.292;2023-07-31T01:17:44;17.20;98.30
24402;DHT22;12539;48.808;11.292;2023-07-31T01:20:26;17.20;98.40
24402;DHT22;12539;48.808;11.292;2023-07-31T01:27:44;17.20;98.70
24402;DHT22;12539;48.808;11.292;2023-07-31T01:30:16;17.20;98.80
24402;DHT22;12539;48.808;11.292;2023-07-31T01:32:42;17.30;99.00
24402;DHT22;12539;48.808;11.292;2023-07-31T01:35:09;17.20;98.80
24402;DHT22;12539;48.808;11.292;2023-07-31T01:37:34;17.20;98.80
24402;DHT22;12539;48.808;11.292;2023-07-31T01:40:00;17.10;98.80
24402;DHT22;12539;48.808;11.292;2023-07-31T01:42:25;17.10;98.70
24402;DHT22;12539;48.808;11.292;2023-07-31T01:44:51;17.00;98.90
24402;DHT22;12539;48.808;11.292;2023-07-31T01:47:16;17.00;99.00
24402;DHT22;12539;48.808;11.292;2023-07-31T01:49:42;16.90;99.30
24402;DHT22;12539;48.808;11.292;2023-07-31T01:52:08;16.90;99.20
24402;DHT22;12539;48.808;11.292;2023-07-31T01:54:33;16.90;99.10
24402;DHT22;12539;48.808;11.292;2023-07-31T01:56:59;16.90;99.30
24402;DHT22;12539;48.808;11.292;2023-07-31T01:59:24;16.90;99.10
24402;DHT22;12539;48.808;11.292;2023-07-31T02:01:50;16.80;99.20
24402;DHT22;12539;48.808;11.292;2023-07-31T02:04:15;16.80;99.50
24402;DHT22;12539;48.808;11.292;2023-07-31T02:06:41;16.70;99.40
24402;DHT22;12539;48.808;11.292;2023-07-31T02:09:07;16.70;99.60
24402;DHT22;12539;48.808;11.292;2023-07-31T02:11:32;16.70;99.70
24402;DHT22;12539;48.808;11.292;2023-07-31T02:13:58;16.70;99.80
24402;DHT22;12539;48.808;11.292;2023-07-31T02:16:23;16.70;99.90
24402;DHT22;12539;48.808;11.292;2023-07-31T02:18:49;16.70;99.90
24402;DHT22;12539;48.808;11.292;2023-07-31T02:21:14;16.80;99.90
24402;DHT22;12539;48.808;11.292;2023-07-31T02:23:40;16.80;99.90
24402;DHT22;12539;48.808;11.292;2023-07-31T02:26:05;16.70;99.80
24402;DHT22;12539;48.808;11.292;2023-07-31T02:28:31;16.70;99.70
24402;DHT22;12539;48.808;11.292;2023-07-31T02:30:56;16.60;99.90
24402;DHT22;12539;48.808;11.292;2023-07-31T02:33:22;16.60;99.90
24402;DHT22;12539;48.808;11.292;2023-07-31T02:35:47;16.50;99.90
24402;DHT22;12539;48.808;11.292;2023-07-31T02:38:13;16.50;99.90
24402;DHT22;12539;48.808;11.292;2023-07-31T02:40:39;16.50;99.90
24402;DHT22;12539;48.808;11.292;2023-07-31T02:43:05;16.50;99.90
24402;DHT22;12539;48.808;11.292;2023-07-31T02:45:31;16.50;99.90
24402;DHT22;12539;48.808;11.292;2023-07-31T02:47:56;16.50;99.70
24402;DHT22;12539;48.808;11.292;2023-07-31T02:50:22;16.40;99.90
24402;DHT22;12539;48.808;11.292;2023-07-31T02:52:47;16.40;99.90
24402;DHT22;12539;48.808;11.292;2023-07-31T02:55:13;16.50;99.90
24402;DHT22;12539;48.808;11.292;2023-07-31T02:57:39;16.60;99.90
24402;DHT22;12539;48.808;11.292;2023-07-31T03:00:04;16.60;99.60
24402;DHT22;12539;48.808;11.292;2023-07-31T03:05:16;16.60;99.70
24402;DHT22;12539;48.808;11.292;2023-07-31T03:07:41;16.60;99.10
24402;DHT22;12539;48.808;11.292;2023-07-31T03:10:07;16.60;99.40
24402;DHT22;12539;48.808;11.292;2023-07-31T03:12:32;16.60;99.50
24402;DHT22;12539;48.808;11.292;2023-07-31T03:14:58;16.60;99.70
24402;DHT22;12539;48.808;11.292;2023-07-31T03:17:24;16.60;99.80
24402;DHT22;12539;48.808;11.292;2023-07-31T03:19:49;16.50;99.90
24402;DHT22;12539;48.808;11.292;2023-07-31T03:22:17;16.50;99.80
24402;DHT22;12539;48.808;11.292;2023-07-31T03:24:42;16.50;99.90
24402;DHT22;12539;48.808;11.292;2023-07-31T03:27:08;16.40;99.90
24402;DHT22;12539;48.808;11.292;2023-07-31T03:29:33;16.40;99.90
24402;DHT22;12539;48.808;11.292;2023-07-31T03:31:59;16.40;99.90
24402;DHT22;12539;48.808;11.292;2023-07-31T03:34:25;16.40;99.90
24402;DHT22;12539;48.808;11.292;2023-07-31T03:36:50;16.40;99.90
24402;DHT22;12539;48.808;11.292;2023-07-31T03:39:16;16.40;99.90
24402;DHT22;12539;48.808;11.292;2023-07-31T03:41:41;16.40;99.90
24402;DHT22;12539;48.808;11.292;2023-07-31T03:44:07;16.40;99.90
24402;DHT22;12539;48.808;11.292;2023-07-31T03:46:34;16.30;99.90
24402;DHT22;12539;48.808;11.292;2023-07-31T03:49:01;16.40;99.90
24402;DHT22;12539;48.808;11.292;2023-07-31T03:51:26;16.50;99.90
24402;DHT22;12539;48.808;11.292;2023-07-31T03:53:52;16.50;99.80
24402;DHT22;12539;48.808;11.292;2023-07-31T03:56:17;16.50;99.90
24402;DHT22;12539;48.808;11.292;2023-07-31T03:58:43;16.50;99.90
24402;DHT22;12539;48.808;11.292;2023-07-31T04:01:09;16.50;99.90
24402;DHT22;12539;48.808;11.292;2023-07-31T04:03:34;16.50;99.80
24402;DHT22;12539;48.808;11.292;2023-07-31T04:06:00;16.40;99.90
24402;DHT22;12539;48.808;11.292;2023-07-31T04:08:25;16.40;99.90
24402;DHT22;12539;48.808;11.292;2023-07-31T04:10:51;16.40;99.90
24402;DHT22;12539;48.808;11.292;2023-07-31T04:13:16;16.30;99.90
24402;DHT22;12539;48.808;11.292;2023-07-31T04:15:42;16.30;99.90
24402;DHT22;12539;48.808;11.292;2023-07-31T04:18:07;16.30;99.90
24402;DHT22;12539;48.808;11.292;2023-07-31T04:20:33;16.40;99.90
24402;DHT22;12539;48.808;11.292;2023-07-31T04:22:58;16.40;99.90
24402;DHT22;12539;48.808;11.292;2023-07-31T04:25:24;16.40;99.90
24402;DHT22;12539;48.808;11.292;2023-07-31T04:27:49;16.40;99.90
24402;DHT22;12539;48.808;11.292;2023-07-31T04:30:15;16.50;99.90
24402;DHT22;12539;48.808;11.292;2023-07-31T04:32:40;16.50;99.90
24402;DHT22;12539;48.808;11.292;2023-07-31T04:35:06;16.50;99.90
24402;DHT22;12539;48.808;11.292;2023-07-31T04:37:32;16.60;99.90
24402;DHT22;12539;48.808;11.292;2023-07-31T04:39:57;16.60;99.90
24402;DHT22;12539;48.808;11.292;2023-07-31T04:42:23;16.70;99.90
24402;DHT22;12539;48.808;11.292;2023-07-31T04:44:48;16.90;99.90
24402;DHT22;12539;48.808;11.292;2023-07-31T04:47:14;17.10;99.90
24402;DHT22;12539;48.808;11.292;2023-07-31T04:49:39;17.30;99.90
24402;DHT22;12539;48.808;11.292;2023-07-31T04:52:05;17.50;99.90
24402;DHT22;12539;48.808;11.292;2023-07-31T04:54:31;17.60;99.90
24402;DHT22;12539;48.808;11.292;2023-07-31T04:56:56;17.70;99.90
24402;DHT22;12539;48.808;11.292;2023-07-31T04:59:22;17.80;99.50
24402;DHT22;12539;48.808;11.292;2023-07-31T05:01:47;17.90;99.90
24402;DHT22;12539;48.808;11.292;2023-07-31T05:04:13;17.80;98.50
24402;DHT22;12539;48.808;11.292;2023-07-31T05:06:39;17.70;98.00
24402;DHT22;12539;48.808;11.292;2023-07-31T05:09:05;17.50;98.80
24402;DHT22;12539;48.808;11.292;2023-07-31T05:11:31;17.40;98.90
24402;DHT22;12539;48.808;11.292;2023-07-31T05:13:56;17.40;98.50
24402;DHT22;12539;48.808;11.292;2023-07-31T05:16:22;17.40;97.40
24402;DHT22;12539;48.808;11.292;2023-07-31T05:18:47;17.40;98.50
24402;DHT22;12539;48.808;11.292;2023-07-31T05:21:13;17.40;96.90
24402;DHT22;12539;48.808;11.292;2023-07-31T05:23:38;17.40;97.00
24402;DHT22;12539;48.808;11.292;2023-07-31T05:26:04;17.40;96.10
24402;DHT22;12539;48.808;11.292;2023-07-31T05:28:30;17.30;96.20
24402;DHT22;12539;48.808;11.292;2023-07-31T05:30:58;17.30;97.10
24402;DHT22;12539;48.808;11.292;2023-07-31T05:33:24;17.30;96.60
24402;DHT22;12539;48.808;11.292;2023-07-31T05:35:49;17.40;97.20
24402;DHT22;12539;48.808;11.292;2023-07-31T05:38:15;17.60;97.10
24402;DHT22;12539;48.808;11.292;2023-07-31T05:40:42;17.80;97.00
24402;DHT22;12539;48.808;11.292;2023-07-31T05:43:07;18.10;97.30
24402;DHT22;12539;48.808;11.292;2023-07-31T05:45:33;18.30;97.10
24402;DHT22;12539;48.808;11.292;2023-07-31T05:47:59;18.70;96.70
24402;DHT22;12539;48.808;11.292;2023-07-31T05:50:24;19.00;95.80
24402;DHT22;12539;48.808;11.292;2023-07-31T05:52:50;19.10;94.10
24402;DHT22;12539;48.808;11.292;2023-07-31T05:55:15;19.20;94.50
24402;DHT22;12539;48.808;11.292;2023-07-31T05:57:41;19.40;93.80
24402;DHT22;12539;48.808;11.292;2023-07-31T06:00:07;19.50;93.40
24402;DHT22;12539;48.808;11.292;2023-07-31T06:02:33;19.60;93.60
24402;DHT22;12539;48.808;11.292;2023-07-31T06:05:02;19.80;92.90
24402;DHT22;12539;48.808;11.292;2023-07-31T06:07:29;19.90;92.70
24402;DHT22;12539;48.808;11.292;2023-07-31T06:09:54;20.00;91.10
24402;DHT22;12539;48.808;11.292;2023-07-31T06:12:20;20.00;90.60
24402;DHT22;12539;48.808;11.292;2023-07-31T06:14:46;20.10;91.30
24402;DHT22;12539;48.808;11.292;2023-07-31T06:17:11;20.20;90.40
24402;DHT22;12539;48.808;11.292;2023-07-31T06:19:37;20.50;90.90
24402;DHT22;12539;48.808;11.292;2023-07-31T06:22:04;20.80;88.60
24402;DHT22;12539;48.808;11.292;2023-07-31T06:24:30;21.20;85.90
24402;DHT22;12539;48.808;11.292;2023-07-31T06:26:56;21.30;86.30
24402;DHT22;12539;48.808;11.292;2023-07-31T06:29:22;21.30;86.30
24402;DHT22;12539;48.808;11.292;2023-07-31T06:31:48;21.20;84.80
24402;DHT22;12539;48.808;11.292;2023-07-31T06:34:13;21.10;85.70
24402;DHT22;12539;48.808;11.292;2023-07-31T06:36:39;21.10;86.10
24402;DHT22;12539;48.808;11.292;2023-07-31T06:39:04;21.10;86.40
24402;DHT22;12539;48.808;11.292;2023-07-31T06:41:30;21.20;86.00
24402;DHT22;12539;48.808;11.292;2023-07-31T06:43:55;21.00;83.10
24402;DHT22;12539;48.808;11.292;2023-07-31T06:46:21;20.80;84.80
24402;DHT22;12539;48.808;11.292;2023-07-31T06:48:46;20.80;84.80
24402;DHT22;12539;48.808;11.292;2023-07-31T06:51:12;20.70;85.50
24402;DHT22;12539;48.808;11.292;2023-07-31T06:53:37;20.60;85.50
24402;DHT22;12539;48.808;11.292;2023-07-31T06:56:03;20.70;85.90
24402;DHT22;12539;48.808;11.292;2023-07-31T06:58:29;20.80;85.80
24402;DHT22;12539;48.808;11.292;2023-07-31T07:00:55;20.90;84.00
24402;DHT22;12539;48.808;11.292;2023-07-31T07:03:20;21.00;82.60
24402;DHT22;12539;48.808;11.292;2023-07-31T07:05:46;21.20;84.30
24402;DHT22;12539;48.808;11.292;2023-07-31T07:08:11;21.30;83.10
24402;DHT22;12539;48.808;11.292;2023-07-31T07:10:37;21.40;81.60
24402;DHT22;12539;48.808;11.292;2023-07-31T07:13:02;21.40;82.50
24402;DHT22;12539;48.808;11.292;2023-07-31T07:15:28;21.70;82.40
24402;DHT22;12539;48.808;11.292;2023-07-31T07:17:54;22.50;80.10
24402;DHT22;12539;48.808;11.292;2023-07-31T07:20:19;23.00;75.40
24402;DHT22;12539;48.808;11.292;2023-07-31T07:22:45;23.00;74.60
24402;DHT22;12539;48.808;11.292;2023-07-31T07:25:11;22.60;73.90
24402;DHT22;12539;48.808;11.292;2023-07-31T07:27:36;22.10;73.80
24402;DHT22;12539;48.808;11.292;2023-07-31T07:30:02;21.90;74.90
24402;DHT22;12539;48.808;11.292;2023-07-31T07:32:27;21.60;76.40
24402;DHT22;12539;48.808;11.292;2023-07-31T07:34:53;21.60;78.10
24402;DHT22;12539;48.808;11.292;2023-07-31T07:37:18;21.60;77.40
24402;DHT22;12539;48.808;11.292;2023-07-31T07:39:44;21.60;78.40
24402;DHT22;12539;48.808;11.292;2023-07-31T07:42:10;21.80;78.30
24402;DHT22;12539;48.808;11.292;2023-07-31T07:44:35;21.90;77.90
24402;DHT22;12539;48.808;11.292;2023-07-31T07:47:01;22.00;77.80
24402;DHT22;12539;48.808;11.292;2023-07-31T07:49:26;22.30;77.00
24402;DHT22;12539;48.808;11.292;2023-07-31T07:51:52;22.60;77.50
24402;DHT22;12539;48.808;11.292;2023-07-31T07:54:17;22.70;75.70
24402;DHT22;12539;48.808;11.292;2023-07-31T07:56:44;22.80;74.70
24402;DHT22;12539;48.808;11.292;2023-07-31T07:59:10;22.80;74.30
24402;DHT22;12539;48.808;11.292;2023-07-31T08:01:35;22.80;74.10
24402;DHT22;12539;48.808;11.292;2023-07-31T08:04:01;22.90;72.70
24402;DHT22;12539;48.808;11.292;2023-07-31T08:06:26;22.90;72.70
24402;DHT22;12539;48.808;11.292;2023-07-31T08:08:52;22.80;72.70
24402;DHT22;12539;48.808;11.292;2023-07-31T08:11:17;22.90;73.00
24402;DHT22;12539;48.808;11.292;2023-07-31T08:13:43;22.90;73.50
24402;DHT22;12539;48.808;11.292;2023-07-31T08:16:09;22.90;74.20
24402;DHT22;12539;48.808;11.292;2023-07-31T08:18:35;23.00;73.10
24402;DHT22;12539;48.808;11.292;2023-07-31T08:21:01;23.10;73.70
24402;DHT22;12539;48.808;11.292;2023-07-31T08:23:27;23.20;73.80
24402;DHT22;12539;48.808;11.292;2023-07-31T08:25:59;23.30;73.00
24402;DHT22;12539;48.808;11.292;2023-07-31T08:28:24;23.30;71.40
24402;DHT22;12539;48.808;11.292;2023-07-31T08:30:50;23.40;71.70
24402;DHT22;12539;48.808;11.292;2023-07-31T08:33:16;23.50;71.90
24402;DHT22;12539;48.808;11.292;2023-07-31T08:35:41;23.50;72.00
24402;DHT22;12539;48.808;11.292;2023-07-31T08:38:07;23.60;72.50
24402;DHT22;12539;48.808;11.292;2023-07-31T08:40:35;23.70;71.40
24402;DHT22;12539;48.808;11.292;2023-07-31T08:43:01;23.70;71.30
24402;DHT22;12539;48.808;11.292;2023-07-31T08:45:28;23.70;70.50
24402;DHT22;12539;48.808;11.292;2023-07-31T08:47:53;23.70;70.20
24402;DHT22;12539;48.808;11.292;2023-07-31T08:53:05;23.70;71.30
24402;DHT22;12539;48.808;11.292;2023-07-31T08:55:30;23.70;71.40
24402;DHT22;12539;48.808;11.292;2023-07-31T08:57:56;23.70;71.20
24402;DHT22;12539;48.808;11.292;2023-07-31T09:00:22;23.70;71.50
24402;DHT22;12539;48.808;11.292;2023-07-31T09:03:02;23.70;70.70
24402;DHT22;12539;48.808;11.292;2023-07-31T09:05:29;23.60;69.80
24402;DHT22;12539;48.808;11.292;2023-07-31T09:07:54;23.50;69.80
24402;DHT22;12539;48.808;11.292;2023-07-31T09:10:20;23.40;69.40
24402;DHT22;12539;48.808;11.292;2023-07-31T09:12:46;23.40;69.40
24402;DHT22;12539;48.808;11.292;2023-07-31T09:15:12;23.30;69.30
24402;DHT22;12539;48.808;11.292;2023-07-31T09:17:37;23.30;69.10
24402;DHT22;12539;48.808;11.292;2023-07-31T09:20:12;23.20;69.60
24402;DHT22;12539;48.808;11.292;2023-07-31T09:22:38;23.20;70.00
24402;DHT22;12539;48.808;11.292;2023-07-31T09:25:14;23.20;70.50
24402;DHT22;12539;48.808;11.292;2023-07-31T09:27:51;23.30;70.80
24402;DHT22;12539;48.808;11.292;2023-07-31T09:30:17;23.30;69.10
24402;DHT22;12539;48.808;11.292;2023-07-31T09:32:46;23.30;70.60
24402;DHT22;12539;48.808;11.292;2023-07-31T09:35:22;23.30;70.60
24402;DHT22;12539;48.808;11.292;2023-07-31T09:37:51;23.30;70.80
24402;DHT22;12539;48.808;11.292;2023-07-31T09:40:30;23.20;69.90
24402;DHT22;12539;48.808;11.292;2023-07-31T09:42:57;23.20;69.20
24402;DHT22;12539;48.808;11.292;2023-07-31T09:45:23;23.10;68.90
24402;DHT22;12539;48.808;11.292;2023-07-31T09:47:48;23.00;69.70
24402;DHT22;12539;48.808;11.292;2023-07-31T09:50:14;23.00;70.30
24402;DHT22;12539;48.808;11.292;2023-07-31T09:52:41;23.00;70.60
24402;DHT22;12539;48.808;11.292;2023-07-31T09:55:07;23.00;70.90
24402;DHT22;12539;48.808;11.292;2023-07-31T09:57:33;23.10;71.00
24402;DHT22;12539;48.808;11.292;2023-07-31T09:59:59;23.20;70.80
24402;DHT22;12539;48.808;11.292;2023-07-31T10:02:25;23.30;70.30
24402;DHT22;12539;48.808;11.292;2023-07-31T10:04:52;23.40;70.10
24402;DHT22;12539;48.808;11.292;2023-07-31T10:07:22;23.50;70.10
24402;DHT22;12539;48.808;11.292;2023-07-31T10:09:49;23.70;69.50
24402;DHT22;12539;48.808;11.292;2023-07-31T10:12:16;23.70;66.30
24402;DHT22;12539;48.808;11.292;2023-07-31T10:14:44;23.70;66.30
24402;DHT22;12539;48.808;11.292;2023-07-31T10:17:10;23.70;67.30
24402;DHT22;12539;48.808;11.292;2023-07-31T10:19:36;23.70;68.10
24402;DHT22;12539;48.808;11.292;2023-07-31T10:22:02;23.70;67.00
24402;DHT22;12539;48.808;11.292;2023-07-31T10:24:28;23.80;67.00
24402;DHT22;12539;48.808;11.292;2023-07-31T10:26:57;23.90;66.70
24402;DHT22;12539;48.808;11.292;2023-07-31T10:29:23;23.90;66.30
24402;DHT22;12539;48.808;11.292;2023-07-31T10:31:49;24.00;66.80
24402;DHT22;12539;48.808;11.292;2023-07-31T10:34:15;24.10;65.90
24402;DHT22;12539;48.808;11.292;2023-07-31T10:36:41;24.10;61.10
24402;DHT22;12539;48.808;11.292;2023-07-31T10:39:32;24.00;62.90
24402;DHT22;12539;48.808;11.292;2023-07-31T10:41:52;23.90;63.20
24402;DHT22;12539;48.808;11.292;2023-07-31T10:44:18;23.80;64.10
24402;DHT22;12539;48.808;11.292;2023-07-31T10:46:45;23.70;62.40
24402;DHT22;12539;48.808;11.292;2023-07-31T10:49:10;23.70;61.30
24402;DHT22;12539;48.808;11.292;2023-07-31T10:51:47;23.70;62.50
24402;DHT22;12539;48.808;11.292;2023-07-31T10:54:13;23.90;63.10
24402;DHT22;12539;48.808;11.292;2023-07-31T10:56:40;23.90;61.90
24402;DHT22;12539;48.808;11.292;2023-07-31T10:59:05;23.90;61.10
24402;DHT22;12539;48.808;11.292;2023-07-31T11:04:28;23.70;62.40
24402;DHT22;12539;48.808;11.292;2023-07-31T11:06:56;23.60;63.10
24402;DHT22;12539;48.808;11.292;2023-07-31T11:09:24;23.60;62.10
24402;DHT22;12539;48.808;11.292;2023-07-31T11:11:49;23.60;61.80
24402;DHT22;12539;48.808;11.292;2023-07-31T11:14:17;23.50;62.80
24402;DHT22;12539;48.808;11.292;2023-07-31T11:16:42;23.60;63.30
24402;DHT22;12539;48.808;11.292;2023-07-31T11:19:08;23.70;63.50
24402;DHT22;12539;48.808;11.292;2023-07-31T11:21:33;23.80;63.10
24402;DHT22;12539;48.808;11.292;2023-07-31T11:23:59;23.80;63.00
24402;DHT22;12539;48.808;11.292;2023-07-31T11:26:25;23.80;63.10
24402;DHT22;12539;48.808;11.292;2023-07-31T11:28:50;23.70;61.70
24402;DHT22;12539;48.808;11.292;2023-07-31T11:34:05;23.60;63.20
24402;DHT22;12539;48.808;11.292;2023-07-31T11:36:31;23.70;63.60
24402;DHT22;12539;48.808;11.292;2023-07-31T11:39:04;23.70;63.90
24402;DHT22;12539;48.808;11.292;2023-07-31T11:41:29;23.80;62.30
24402;DHT22;12539;48.808;11.292;2023-07-31T11:43:59;23.90;61.70
24402;DHT22;12539;48.808;11.292;2023-07-31T11:46:25;24.10;60.80
24402;DHT22;12539;48.808;11.292;2023-07-31T11:48:50;24.30;59.40
24402;DHT22;12539;48.808;11.292;2023-07-31T11:51:16;24.30;60.10
24402;DHT22;12539;48.808;11.292;2023-07-31T11:56:27;24.60;60.80
24402;DHT22;12539;48.808;11.292;2023-07-31T11:58:54;24.60;59.30
24402;DHT22;12539;48.808;11.292;2023-07-31T12:01:20;24.60;59.50
24402;DHT22;12539;48.808;11.292;2023-07-31T12:03:47;24.60;60.10
24402;DHT22;12539;48.808;11.292;2023-07-31T12:06:14;24.70;59.60
24402;DHT22;12539;48.808;11.292;2023-07-31T12:08:40;24.70;60.20
24402;DHT22;12539;48.808;11.292;2023-07-31T12:11:07;24.80;59.90
24402;DHT22;12539;48.808;11.292;2023-07-31T12:13:34;24.80;58.60
24402;DHT22;12539;48.808;11.292;2023-07-31T12:16:01;24.80;58.20
24402;DHT22;12539;48.808;11.292;2023-07-31T12:18:29;24.90;58.60
24402;DHT22;12539;48.808;11.292;2023-07-31T12:20:59;25.10;57.80
24402;DHT22;12539;48.808;11.292;2023-07-31T12:23:25;25.40;58.00
24402;DHT22;12539;48.808;11.292;2023-07-31T12:26:12;25.60;58.50
24402;DHT22;12539;48.808;11.292;2023-07-31T12:28:45;25.70;57.80
24402;DHT22;12539;48.808;11.292;2023-07-31T12:31:15;25.90;55.60
24402;DHT22;12539;48.808;11.292;2023-07-31T12:33:43;25.80;54.60
24402;DHT22;12539;48.808;11.292;2023-07-31T12:36:12;25.70;55.50
24402;DHT22;12539;48.808;11.292;2023-07-31T12:38:38;25.60;56.10
24402;DHT22;12539;48.808;11.292;2023-07-31T12:41:03;25.50;55.00
24402;DHT22;12539;48.808;11.292;2023-07-31T12:43:30;25.40;55.70
24402;DHT22;12539;48.808;11.292;2023-07-31T12:45:55;25.40;56.00
24402;DHT22;12539;48.808;11.292;2023-07-31T12:48:23;25.40;55.70
24402;DHT22;12539;48.808;11.292;2023-07-31T12:50:49;25.40;56.20
24402;DHT22;12539;48.808;11.292;2023-07-31T12:53:15;25.40;55.60
24402;DHT22;12539;48.808;11.292;2023-07-31T12:55:40;25.40;56.50
24402;DHT22;12539;48.808;11.292;2023-07-31T12:58:06;25.40;55.70
24402;DHT22;12539;48.808;11.292;2023-07-31T13:00:34;25.40;56.50
24402;DHT22;12539;48.808;11.292;2023-07-31T13:03:00;25.40;57.10
24402;DHT22;12539;48.808;11.292;2023-07-31T13:05:28;25.50;56.50
24402;DHT22;12539;48.808;11.292;2023-07-31T13:07:54;25.50;55.70
24402;DHT22;12539;48.808;11.292;2023-07-31T13:10:20;25.60;55.70
24402;DHT22;12539;48.808;11.292;2023-07-31T13:12:45;25.50;55.80
24402;DHT22;12539;48.808;11.292;2023-07-31T13:15:11;25.40;56.10
24402;DHT22;12539;48.808;11.292;2023-07-31T13:17:37;25.30;56.00
24402;DHT22;12539;48.808;11.292;2023-07-31T13:20:03;25.30;56.50
24402;DHT22;12539;48.808;11.292;2023-07-31T13:22:28;25.20;56.90
24402;DHT22;12539;48.808;11.292;2023-07-31T13:24:54;25.20;57.10
24402;DHT22;12539;48.808;11.292;2023-07-31T13:27:19;25.20;57.40
24402;DHT22;12539;48.808;11.292;2023-07-31T13:29:50;25.20;56.60
24402;DHT22;12539;48.808;11.292;2023-07-31T13:32:16;25.10;56.60
24402;DHT22;12539;48.808;11.292;2023-07-31T13:34:42;25.00;57.30
24402;DHT22;12539;48.808;11.292;2023-07-31T13:37:08;24.90;56.60
24402;DHT22;12539;48.808;11.292;2023-07-31T13:39:33;24.80;56.50
24402;DHT22;12539;48.808;11.292;2023-07-31T13:41:59;24.80;56.90
24402;DHT22;12539;48.808;11.292;2023-07-31T13:44:25;24.70;57.80
24402;DHT22;12539;48.808;11.292;2023-07-31T13:46:51;24.70;57.20
24402;DHT22;12539;48.808;11.292;2023-07-31T13:49:16;24.70;56.90
24402;DHT22;12539;48.808;11.292;2023-07-31T13:51:42;24.70;57.70
24402;DHT22;12539;48.808;11.292;2023-07-31T13:54:08;24.80;57.00
24402;DHT22;12539;48.808;11.292;2023-07-31T13:56:33;24.80;56.60
24402;DHT22;12539;48.808;11.292;2023-07-31T13:58:59;24.80;57.30
24402;DHT22;12539;48.808;11.292;2023-07-31T14:01:26;24.90;57.30
24402;DHT22;12539;48.808;11.292;2023-07-31T14:03:52;25.00;56.80
24402;DHT22;12539;48.808;11.292;2023-07-31T14:06:17;25.00;56.80
24402;DHT22;12539;48.808;11.292;2023-07-31T14:08:43;25.00;56.50
24402;DHT22;12539;48.808;11.292;2023-07-31T14:11:08;25.00;56.80
24402;DHT22;12539;48.808;11.292;2023-07-31T14:13:34;25.10;57.30
24402;DHT22;12539;48.808;11.292;2023-07-31T14:15:59;25.10;57.10
24402;DHT22;12539;48.808;11.292;2023-07-31T14:18:25;25.20;57.50
24402;DHT22;12539;48.808;11.292;2023-07-31T14:20:51;25.20;57.90
24402;DHT22;12539;48.808;11.292;2023-07-31T14:23:16;25.20;58.00
24402;DHT22;12539;48.808;11.292;2023-07-31T14:25:42;25.20;57.20
24402;DHT22;12539;48.808;11.292;2023-07-31T14:28:07;25.30;56.40
24402;DHT22;12539;48.808;11.292;2023-07-31T14:30:33;25.30;56.60
24402;DHT22;12539;48.808;11.292;2023-07-31T14:32:58;25.40;56.90
24402;DHT22;12539;48.808;11.292;2023-07-31T14:35:25;25.30;56.70
24402;DHT22;12539;48.808;11.292;2023-07-31T14:37:51;25.30;57.10
24402;DHT22;12539;48.808;11.292;2023-07-31T14:40:16;25.20;57.60
24402;DHT22;12539;48.808;11.292;2023-07-31T14:42:42;25.20;57.90
24402;DHT22;12539;48.808;11.292;2023-07-31T14:45:08;25.20;58.10
24402;DHT22;12539;48.808;11.292;2023-07-31T14:47:34;25.10;58.00
24402;DHT22;12539;48.808;11.292;2023-07-31T14:50:00;25.10;58.30
24402;DHT22;12539;48.808;11.292;2023-07-31T14:52:26;25.10;58.50
24402;DHT22;12539;48.808;11.292;2023-07-31T14:54:51;25.10;58.50
24402;DHT22;12539;48.808;11.292;2023-07-31T14:57:17;25.20;57.70
24402;DHT22;12539;48.808;11.292;2023-07-31T14:59:43;25.20;56.20
24402;DHT22;12539;48.808;11.292;2023-07-31T15:02:08;25.20;57.10
24402;DHT22;12539;48.808;11.292;2023-07-31T15:04:34;25.20;57.60
24402;DHT22;12539;48.808;11.292;2023-07-31T15:07:00;25.20;57.60
24402;DHT22;12539;48.808;11.292;2023-07-31T15:09:26;25.10;57.80
24402;DHT22;12539;48.808;11.292;2023-07-31T15:11:51;25.00;57.30
24402;DHT22;12539;48.808;11.292;2023-07-31T15:14:17;25.00;56.80
24402;DHT22;12539;48.808;11.292;2023-07-31T15:16:42;24.90;56.60
24402;DHT22;12539;48.808;11.292;2023-07-31T15:19:08;24.90;56.50
24402;DHT22;12539;48.808;11.292;2023-07-31T15:21:36;24.90;57.10
24402;DHT22;12539;48.808;11.292;2023-07-31T15:24:01;24.90;57.90
24402;DHT22;12539;48.808;11.292;2023-07-31T15:26:27;24.80;57.20
24402;DHT22;12539;48.808;11.292;2023-07-31T15:29:01;24.90;58.00
24402;DHT22;12539;48.808;11.292;2023-07-31T15:31:27;24.80;57.60